This is the latest recevied weather packets stored in our database for station/object JA6CFI-13. If no packets are shown the sender has not sent any weather packets the latest 1 day(s).
| Time | Temp. | Humidity | Pressure | Rain* | Wind** | Luminosity | Snow |
|---|---|---|---|---|---|---|---|
| 1778057002 | 22.78° C | 62% | 1015 hPa | 0 mm | - | - | - |
| 1778056222 | 23.33° C | 60% | 1015 hPa | 0 mm | - | - | - |
| 1778055441 | 23.33° C | 58% | 1015 hPa | 0 mm | - | - | - |
| 1778053881 | 23.89° C | 53% | 1015 hPa | 0 mm | - | - | - |
| 1778053100 | 24.44° C | 51% | 1015.1 hPa | 0 mm | - | - | - |
| 1778052322 | 24.44° C | 52% | 1015.3 hPa | 0 mm | - | - | - |
| 1778051542 | 24.44° C | 53% | 1015.3 hPa | 0 mm | - | - | - |
| 1778049981 | 23.89° C | 55% | 1015 hPa | 0 mm | - | - | - |
| 1778048422 | 24.44° C | 56% | 1015 hPa | 0 mm | - | - | - |
| 1778047641 | 25° C | 54% | 1014.9 hPa | 0 mm | - | - | - |
| 1778046082 | 25° C | 55% | 1014.9 hPa | 0 mm | - | - | - |
| 1778045302 | 25.56° C | 55% | 1014.9 hPa | 0 mm | - | - | - |
| 1778042962 | 25° C | 57% | 1015.6 hPa | 0 mm | - | - | - |
| 1778042181 | 24.44° C | 59% | 1015.7 hPa | 0 mm | - | - | - |
| 1778041401 | 24.44° C | 59% | 1015.9 hPa | 0 mm | - | - | - |
| 1778040622 | 24.44° C | 58% | 1016.1 hPa | 0 mm | - | - | - |
| 1778039842 | 23.89° C | 59% | 1016.1 hPa | 0 mm | - | - | - |
| 1778039062 | 25° C | 56% | 1016.4 hPa | 0 mm | - | - | - |
| 1778038281 | 25° C | 57% | 1016.6 hPa | 0 mm | - | - | - |
| 1778037500 | 25.56° C | 55% | 1016.8 hPa | 0 mm | - | - | - |
| 1778036722 | 26.11° C | 52% | 1016.9 hPa | 0 mm | - | - | - |
| 1778035161 | 25.56° C | 49% | 1017.2 hPa | 0 mm | - | - | - |
| 1778034382 | 26.11° C | 48% | 1017.5 hPa | 0 mm | - | - | - |
| 1778033602 | 25° C | 51% | 1017.7 hPa | 0 mm | - | - | - |
| 1778033523 | 25° C | 51% | 1017.8 hPa | 0 mm | - | - | - |
* Rain latest hour (hover to see other rain measurements)
** Current wind speed in m/s (hover to see current wind gust speed)